Terminal Aerodrome Forecast
Issued by NWS Des Moines, IA

Home | Current Version | Previous Version | Text Only | Print | Product List | Glossary On
Versions: 1 2 3 4 5 6 7 8 9 10 11 12 13 14 15 16 17 18 19 20 21 22 23 24 25 26 27 28 29 30 31 32 33 34 35 36 37 38 39 40 41 42 43 44 45 46
377
FTUS43 KDMX 221734
TAFALO
TAF
KALO 221734Z 2218/2318 31008KT P6SM BKN140
     FM222300 25005KT P6SM SCT200
     FM230200 19005KT P6SM FEW200
     FM231400 26010KT P6SM BKN100=

USA.gov is the U.S. government's official web portal to all federal, state and local government web resources and services.